createdAt,value
2018-05-27T00:00:22.848Z,25.96
2018-05-27T00:01:25.368Z,25.96
2018-05-27T00:02:27.888Z,25.96
2018-05-27T00:03:30.375Z,25.96
2018-05-27T00:04:32.860Z,25.96
2018-05-27T00:05:35.372Z,25.96
2018-05-27T00:06:37.939Z,25.96
2018-05-27T00:07:40.431Z,25.96
2018-05-27T00:08:42.945Z,25.96
2018-05-27T00:09:45.436Z,25.96
2018-05-27T00:10:47.928Z,25.97
2018-05-27T00:11:50.440Z,25.97
2018-05-27T00:12:52.945Z,25.97
2018-05-27T00:13:55.506Z,25.98
2018-05-27T00:14:57.965Z,25.99
2018-05-27T00:16:00.458Z,25.99
2018-05-27T00:17:02.963Z,25.99
2018-05-27T00:18:05.438Z,25.99
2018-05-27T00:19:07.972Z,25.98
2018-05-27T00:20:10.471Z,25.99
2018-05-27T00:21:12.951Z,25.99
2018-05-27T00:22:15.468Z,25.99
2018-05-27T00:23:17.976Z,25.99
2018-05-27T00:24:20.469Z,26.00
2018-05-27T00:25:22.987Z,26.00
2018-05-27T00:26:25.488Z,26.00
2018-05-27T00:27:28.001Z,26.00
2018-05-27T00:28:30.494Z,26.00
2018-05-27T00:29:32.977Z,26.00
2018-05-27T00:30:35.475Z,26.00
2018-05-27T00:31:38.018Z,26.00
2018-05-27T00:32:40.529Z,26.01
2018-05-27T00:33:43.027Z,26.01
2018-05-27T00:34:45.506Z,26.02
2018-05-27T00:35:48.001Z,26.04
2018-05-27T00:36:50.470Z,26.04
2018-05-27T00:37:52.966Z,26.05
2018-05-27T00:38:55.462Z,26.05
2018-05-27T00:39:57.959Z,26.06
2018-05-27T00:41:00.430Z,26.08
2018-05-27T00:42:03.000Z,26.09
2018-05-27T00:43:05.490Z,26.09
2018-05-27T00:44:07.969Z,26.10
2018-05-27T00:45:10.444Z,26.10
2018-05-27T00:46:12.942Z,26.10
2018-05-27T00:47:15.427Z,26.11
2018-05-27T00:48:17.926Z,26.12
2018-05-27T00:49:20.421Z,26.12
2018-05-27T00:50:22.935Z,26.12
2018-05-27T00:51:25.429Z,26.12
2018-05-27T00:52:27.975Z,26.12
2018-05-27T00:53:42.358Z,26.12
2018-05-27T00:54:44.852Z,26.12
2018-05-27T00:55:47.344Z,26.12
2018-05-27T00:56:49.855Z,26.13
2018-05-27T00:57:52.348Z,26.15
2018-05-27T00:58:54.865Z,26.16
2018-05-27T00:59:57.441Z,26.17
2018-05-27T01:00:59.934Z,26.19
2018-05-27T01:03:04.288Z,26.21
2018-05-27T01:04:06.798Z,26.20
2018-05-27T01:05:09.289Z,26.21
2018-05-27T01:06:11.777Z,26.22
2018-05-27T01:07:14.288Z,26.23
2018-05-27T01:08:16.800Z,26.24
2018-05-27T01:09:19.309Z,26.24
2018-05-27T01:10:21.805Z,26.25
2018-05-27T01:11:24.306Z,26.25
2018-05-27T01:12:26.792Z,26.25
2018-05-27T01:13:29.284Z,26.26
2018-05-27T01:14:31.801Z,26.26
2018-05-27T01:15:34.288Z,26.27
2018-05-27T01:16:36.766Z,26.27
2018-05-27T01:17:39.311Z,26.27
2018-05-27T01:18:41.801Z,26.27
2018-05-27T01:19:44.328Z,26.27
2018-05-27T01:20:46.828Z,26.27
2018-05-27T01:21:49.323Z,26.27
2018-05-27T01:22:51.835Z,26.26
2018-05-27T01:23:54.329Z,26.25
2018-05-27T01:24:56.827Z,26.24
2018-05-27T01:25:59.313Z,26.24
2018-05-27T01:27:01.805Z,26.25
2018-05-27T01:28:04.311Z,26.24
2018-05-27T01:29:06.790Z,26.24
2018-05-27T01:30:09.297Z,26.23
2018-05-27T01:31:11.774Z,26.23
2018-05-27T01:32:14.274Z,26.23
2018-05-27T01:33:16.779Z,26.24
2018-05-27T01:34:19.275Z,26.26
2018-05-27T01:35:21.803Z,26.25
2018-05-27T01:36:24.300Z,26.26
2018-05-27T01:37:26.808Z,26.27
2018-05-27T01:38:29.329Z,26.27
2018-05-27T01:39:31.805Z,26.28
2018-05-27T01:40:34.326Z,26.29
2018-05-27T01:41:36.817Z,26.29
2018-05-27T01:42:39.296Z,26.30
2018-05-27T01:43:41.799Z,26.30
2018-05-27T01:44:44.291Z,26.30
2018-05-27T01:45:46.782Z,26.30
2018-05-27T01:46:49.263Z,26.30
2018-05-27T01:47:51.786Z,26.30
2018-05-27T01:48:54.281Z,26.29
2018-05-27T01:49:56.790Z,26.30
2018-05-27T01:50:59.321Z,26.30
2018-05-27T01:52:01.807Z,26.30
2018-05-27T01:53:04.324Z,26.30
2018-05-27T01:54:06.832Z,26.30
2018-05-27T01:55:09.325Z,26.31
2018-05-27T01:56:11.844Z,26.30
2018-05-27T01:57:14.336Z,26.30
2018-05-27T01:58:16.836Z,26.31
2018-05-27T01:59:19.333Z,26.31
2018-05-27T02:00:21.832Z,26.32
2018-05-27T02:01:24.322Z,26.32
2018-05-27T02:02:26.808Z,26.32
2018-05-27T02:03:29.305Z,26.33
2018-05-27T02:04:31.807Z,26.33
2018-05-27T02:05:34.316Z,26.33
2018-05-27T02:06:36.838Z,26.34
2018-05-27T02:07:39.341Z,26.34
2018-05-27T02:08:41.810Z,26.35
2018-05-27T02:09:44.355Z,26.35
2018-05-27T02:10:46.826Z,26.35
2018-05-27T02:11:49.318Z,26.36
2018-05-27T02:12:51.824Z,26.36
2018-05-27T02:13:54.301Z,26.37
2018-05-27T02:14:56.784Z,26.37
2018-05-27T02:15:59.273Z,26.38
2018-05-27T02:17:01.771Z,26.38
2018-05-27T02:18:04.261Z,26.39
2018-05-27T02:19:06.761Z,26.38
2018-05-27T02:20:09.232Z,26.40
2018-05-27T02:21:11.715Z,26.39
2018-05-27T02:22:14.217Z,26.40
2018-05-27T02:23:16.720Z,26.40
2018-05-27T02:24:19.246Z,26.40
2018-05-27T02:25:21.717Z,26.40
2018-05-27T02:26:24.218Z,26.40
2018-05-27T02:27:26.749Z,26.41
2018-05-27T02:28:29.256Z,26.41
2018-05-27T02:29:31.734Z,26.39
2018-05-27T02:30:34.227Z,26.37
2018-05-27T02:31:36.719Z,26.38
2018-05-27T02:32:39.229Z,26.39
2018-05-27T02:33:41.730Z,26.39
2018-05-27T02:34:44.206Z,26.40
2018-05-27T02:35:46.704Z,26.40
2018-05-27T02:36:49.201Z,26.39
2018-05-27T02:37:51.725Z,26.40
2018-05-27T02:38:54.216Z,26.39
2018-05-27T02:39:56.726Z,26.39
2018-05-27T02:40:59.208Z,26.39
2018-05-27T02:42:01.697Z,26.39
2018-05-27T02:43:04.197Z,26.39
2018-05-27T02:44:06.682Z,26.40
2018-05-27T02:45:09.166Z,26.39
2018-05-27T02:46:11.669Z,26.38
2018-05-27T02:47:14.173Z,26.39
2018-05-27T02:48:16.702Z,26.37
2018-05-27T02:49:19.209Z,26.37
2018-05-27T02:50:21.682Z,26.37
2018-05-27T02:51:24.191Z,26.37
2018-05-27T02:52:26.703Z,26.37
2018-05-27T02:53:29.203Z,26.37
2018-05-27T02:54:31.700Z,26.37
2018-05-27T02:55:34.183Z,26.36
2018-05-27T02:56:36.689Z,26.36
2018-05-27T02:57:39.198Z,26.36
2018-05-27T02:58:41.708Z,26.36
2018-05-27T02:59:44.200Z,26.36
2018-05-27T03:00:46.688Z,26.36
2018-05-27T03:01:49.191Z,26.36
2018-05-27T03:02:51.688Z,26.35
2018-05-27T03:03:54.193Z,26.35
2018-05-27T03:04:56.695Z,26.35
2018-05-27T03:05:59.181Z,26.35
2018-05-27T03:07:01.662Z,26.36
2018-05-27T03:08:04.185Z,26.36
2018-05-27T03:09:06.696Z,26.36
2018-05-27T03:10:09.258Z,26.38
2018-05-27T03:11:11.751Z,26.38
2018-05-27T03:12:14.231Z,26.39
2018-05-27T03:13:16.735Z,26.40
2018-05-27T03:14:19.249Z,26.40
2018-05-27T03:15:21.728Z,26.40
2018-05-27T03:16:24.198Z,26.41
2018-05-27T03:17:26.692Z,26.41
2018-05-27T03:18:29.177Z,26.41
2018-05-27T03:19:31.671Z,26.42
2018-05-27T03:20:34.191Z,26.41
2018-05-27T03:21:36.663Z,26.41
2018-05-27T03:22:39.164Z,26.41
2018-05-27T03:23:41.923Z,26.41
2018-05-27T03:24:44.475Z,26.40
2018-05-27T03:25:46.960Z,26.40
2018-05-27T03:26:49.453Z,26.40
2018-05-27T03:27:51.927Z,26.40
2018-05-27T03:28:54.421Z,26.40
2018-05-27T03:29:56.951Z,26.41
2018-05-27T03:30:59.453Z,26.41
2018-05-27T03:32:01.934Z,26.42
2018-05-27T03:33:04.455Z,26.43
2018-05-27T03:34:06.957Z,26.43
2018-05-27T03:35:09.480Z,26.43
2018-05-27T03:36:11.987Z,26.45
2018-05-27T03:37:14.462Z,26.46
2018-05-27T03:38:16.944Z,26.45
2018-05-27T03:39:19.453Z,26.45
2018-05-27T03:40:21.935Z,26.45
2018-05-27T03:41:24.444Z,26.44
2018-05-27T03:42:26.951Z,26.43
2018-05-27T03:43:29.455Z,26.43
2018-05-27T03:44:31.962Z,26.43
2018-05-27T03:45:34.482Z,26.44
2018-05-27T03:46:36.987Z,26.43
2018-05-27T03:47:39.477Z,26.44
2018-05-27T03:48:41.990Z,26.43
2018-05-27T03:49:44.570Z,26.44
2018-05-27T03:50:47.103Z,26.43
2018-05-27T03:51:49.608Z,26.43
2018-05-27T03:52:52.090Z,26.43
2018-05-27T03:53:54.579Z,26.42
2018-05-27T03:54:57.084Z,26.42
2018-05-27T03:55:59.599Z,26.42
2018-05-27T03:57:02.078Z,26.42
2018-05-27T03:58:04.686Z,26.43
2018-05-27T03:59:07.167Z,26.43
2018-05-27T04:00:10.454Z,26.43
2018-05-27T04:01:12.962Z,26.43
2018-05-27T04:02:15.449Z,26.43
2018-05-27T04:03:17.953Z,26.43
2018-05-27T04:04:32.413Z,26.43
2018-05-27T04:05:46.786Z,26.44
2018-05-27T04:07:00.997Z,26.44
2018-05-27T04:08:15.298Z,26.43
2018-05-27T04:09:17.774Z,26.43
2018-05-27T04:10:20.258Z,26.43
2018-05-27T04:11:22.787Z,26.44
2018-05-27T04:12:25.270Z,26.43
2018-05-27T04:13:27.774Z,26.43
2018-05-27T04:14:30.269Z,26.44
2018-05-27T04:15:32.746Z,26.44
2018-05-27T04:16:35.240Z,26.45
2018-05-27T04:17:37.712Z,26.44
2018-05-27T04:18:40.190Z,26.42
2018-05-27T04:19:42.677Z,26.42
2018-05-27T04:20:45.178Z,26.41
2018-05-27T04:21:47.689Z,26.41
2018-05-27T04:22:50.162Z,26.41
2018-05-27T04:23:52.664Z,26.42
2018-05-27T04:24:55.143Z,26.42
2018-05-27T04:25:57.647Z,26.43
2018-05-27T04:27:00.143Z,26.43
2018-05-27T04:28:02.632Z,26.44
2018-05-27T04:29:05.104Z,26.44
2018-05-27T04:30:07.600Z,26.43
2018-05-27T04:31:10.080Z,26.44
2018-05-27T04:32:12.631Z,26.44
2018-05-27T04:33:15.122Z,26.45
2018-05-27T04:34:17.610Z,26.45
2018-05-27T04:35:20.113Z,26.45
2018-05-27T04:36:22.611Z,26.46
2018-05-27T04:37:25.117Z,26.45
2018-05-27T04:38:27.614Z,26.46
2018-05-27T04:39:30.097Z,26.47
2018-05-27T04:40:32.580Z,26.48
2018-05-27T04:41:35.083Z,26.49
2018-05-27T04:42:37.593Z,26.49
2018-05-27T04:43:40.085Z,26.50
2018-05-27T04:44:42.558Z,26.49
2018-05-27T04:45:45.177Z,26.49
2018-05-27T04:46:47.672Z,26.50
2018-05-27T04:47:50.173Z,26.50
2018-05-27T04:48:52.677Z,26.51
2018-05-27T04:49:55.166Z,26.51
2018-05-27T04:50:57.673Z,26.52
2018-05-27T04:52:00.154Z,26.52
2018-05-27T04:53:02.656Z,26.52
2018-05-27T04:54:05.319Z,26.52
2018-05-27T04:55:07.831Z,26.51
2018-05-27T04:56:10.347Z,26.52
2018-05-27T04:57:12.830Z,26.53
2018-05-27T04:58:15.335Z,26.52
2018-05-27T04:59:17.848Z,26.53
2018-05-27T05:00:20.388Z,26.53
2018-05-27T05:01:22.907Z,26.53
2018-05-27T05:02:25.467Z,26.53
2018-05-27T05:03:27.966Z,26.52
2018-05-27T05:04:30.547Z,26.52
2018-05-27T05:05:33.052Z,26.52
2018-05-27T05:06:35.565Z,26.53
2018-05-27T05:07:38.086Z,26.53
2018-05-27T05:08:40.875Z,26.53
2018-05-27T05:09:43.384Z,26.54
2018-05-27T05:10:45.894Z,26.53
2018-05-27T05:11:48.385Z,26.54
2018-05-27T05:12:50.862Z,26.54
2018-05-27T05:13:53.354Z,26.54
2018-05-27T05:14:55.906Z,26.54
2018-05-27T05:15:58.373Z,26.54
2018-05-27T05:17:00.867Z,26.54
2018-05-27T05:18:03.374Z,26.53
2018-05-27T05:19:05.903Z,26.53
2018-05-27T05:20:08.382Z,26.53
2018-05-27T05:21:10.868Z,26.53
2018-05-27T05:22:13.367Z,26.54
2018-05-27T05:23:15.868Z,26.54
2018-05-27T05:24:18.402Z,26.53
2018-05-27T05:25:20.899Z,26.53
2018-05-27T05:26:23.378Z,26.54
2018-05-27T05:27:25.865Z,26.54
2018-05-27T05:28:28.351Z,26.54
2018-05-27T05:29:30.856Z,26.54
2018-05-27T05:30:33.357Z,26.54
2018-05-27T05:31:35.866Z,26.54
2018-05-27T05:32:38.361Z,26.53
2018-05-27T05:33:40.857Z,26.52
2018-05-27T05:34:43.352Z,26.50
2018-05-27T05:35:45.841Z,26.47
2018-05-27T05:36:48.333Z,26.44
2018-05-27T05:37:50.852Z,26.41
2018-05-27T05:38:53.347Z,26.39
2018-05-27T05:39:55.915Z,26.35
2018-05-27T05:40:58.407Z,26.33
2018-05-27T05:42:00.915Z,26.29
2018-05-27T05:43:03.410Z,26.26
2018-05-27T05:44:05.917Z,26.24
2018-05-27T05:45:08.395Z,26.22
2018-05-27T05:46:10.874Z,26.22
2018-05-27T05:47:13.382Z,26.26
2018-05-27T05:48:15.907Z,26.24
2018-05-27T05:49:18.452Z,26.22
2018-05-27T05:50:21.033Z,26.20
2018-05-27T05:51:23.539Z,26.19
2018-05-27T05:52:26.037Z,26.17
2018-05-27T05:53:28.541Z,26.14
2018-05-27T05:54:31.033Z,26.12
2018-05-27T05:55:33.525Z,26.10
2018-05-27T05:56:36.016Z,26.05
2018-05-27T05:57:38.494Z,26.04
2018-05-27T05:58:41.025Z,26.04
2018-05-27T05:59:43.534Z,26.04
2018-05-27T06:00:46.011Z,26.03
2018-05-27T06:01:48.484Z,26.02
2018-05-27T06:02:50.967Z,26.01
2018-05-27T06:03:53.468Z,26.00
2018-05-27T06:04:55.957Z,26.00
2018-05-27T06:05:58.525Z,25.97
2018-05-27T06:07:01.031Z,25.94
2018-05-27T06:08:03.549Z,25.88
2018-05-27T06:09:06.042Z,25.88
2018-05-27T06:10:08.524Z,25.89
2018-05-27T06:11:11.019Z,25.87
2018-05-27T06:12:13.508Z,25.86
2018-05-27T06:13:16.055Z,25.83
2018-05-27T06:14:18.553Z,25.83
2018-05-27T06:15:21.045Z,25.81
2018-05-27T06:16:23.540Z,25.79
2018-05-27T06:17:26.045Z,25.79
2018-05-27T06:18:28.534Z,25.78
2018-05-27T06:19:31.016Z,25.78
2018-05-27T06:20:33.494Z,25.78
2018-05-27T06:21:35.988Z,25.78
2018-05-27T06:22:38.482Z,25.77
2018-05-27T06:23:40.962Z,25.74
2018-05-27T06:24:43.453Z,25.73
2018-05-27T06:25:45.946Z,25.72
2018-05-27T06:26:48.464Z,25.70
2018-05-27T06:27:50.989Z,25.69
2018-05-27T06:28:53.489Z,25.68
2018-05-27T06:29:56.016Z,25.67
2018-05-27T06:30:58.576Z,25.70
2018-05-27T06:32:01.116Z,25.69
2018-05-27T06:33:03.580Z,25.67
2018-05-27T06:34:06.060Z,25.71
2018-05-27T06:35:08.549Z,25.70
2018-05-27T06:36:11.045Z,25.72
2018-05-27T06:37:13.553Z,25.70
2018-05-27T06:38:16.085Z,25.66
2018-05-27T06:39:18.576Z,25.64
2018-05-27T06:40:21.424Z,25.65
2018-05-27T06:41:23.912Z,25.65
2018-05-27T06:42:26.409Z,25.63
2018-05-27T06:43:28.919Z,25.62
2018-05-27T06:44:31.441Z,25.61
2018-05-27T06:45:33.935Z,25.60
2018-05-27T06:46:36.418Z,25.60
2018-05-27T06:47:38.922Z,25.58
2018-05-27T06:48:41.429Z,25.58
2018-05-27T06:49:44.133Z,25.58
2018-05-27T06:50:46.705Z,25.58
2018-05-27T06:51:49.195Z,25.59
2018-05-27T06:52:51.732Z,25.60
2018-05-27T06:53:54.255Z,25.61
2018-05-27T06:54:56.755Z,25.61
2018-05-27T06:55:59.288Z,25.62
2018-05-27T06:57:01.808Z,25.61
2018-05-27T06:58:04.423Z,25.61
2018-05-27T06:59:06.957Z,25.62
2018-05-27T07:00:09.445Z,25.63
2018-05-27T07:01:11.937Z,25.64
2018-05-27T07:02:14.443Z,25.64
2018-05-27T07:03:17.015Z,25.65
2018-05-27T07:04:19.518Z,25.65
2018-05-27T07:05:22.032Z,25.65
2018-05-27T07:06:24.540Z,25.65
2018-05-27T07:07:27.088Z,25.66
2018-05-27T07:08:29.616Z,25.67
2018-05-27T07:09:32.109Z,25.67
2018-05-27T07:10:34.604Z,25.68
2018-05-27T07:11:37.131Z,25.67
2018-05-27T07:12:39.751Z,25.68
2018-05-27T07:13:42.264Z,25.68
2018-05-27T07:14:44.761Z,25.68
2018-05-27T07:15:47.309Z,25.69
2018-05-27T07:16:49.801Z,25.69
2018-05-27T07:17:52.303Z,25.70
2018-05-27T07:18:54.817Z,25.70
2018-05-27T07:19:57.335Z,25.69
2018-05-27T07:20:59.895Z,25.70
2018-05-27T07:22:02.381Z,25.71
2018-05-27T07:23:04.883Z,25.71
2018-05-27T07:24:07.467Z,25.72
2018-05-27T07:25:09.949Z,25.72
2018-05-27T07:26:12.480Z,25.71
2018-05-27T07:27:15.006Z,25.72
2018-05-27T07:28:17.497Z,25.72
2018-05-27T07:29:19.974Z,25.73
2018-05-27T07:30:22.482Z,25.74
2018-05-27T07:31:25.001Z,25.74
2018-05-27T07:32:27.513Z,25.75
2018-05-27T07:33:29.986Z,25.76
2018-05-27T07:34:32.484Z,25.74
2018-05-27T07:35:34.997Z,25.75
2018-05-27T07:36:37.482Z,25.76
2018-05-27T07:37:39.974Z,25.75
2018-05-27T07:38:42.454Z,25.75
2018-05-27T07:39:44.943Z,25.77
2018-05-27T07:40:47.509Z,25.77
2018-05-27T07:41:49.967Z,25.78
2018-05-27T07:42:52.438Z,25.78
2018-05-27T07:43:55.021Z,25.79
2018-05-27T07:44:57.547Z,25.80
2018-05-27T07:46:00.060Z,25.80
2018-05-27T07:47:02.550Z,25.80
2018-05-27T07:48:05.039Z,25.80
2018-05-27T07:49:07.541Z,25.80
2018-05-27T07:50:10.045Z,25.81
2018-05-27T07:51:12.533Z,25.81
2018-05-27T07:52:15.036Z,25.83
2018-05-27T07:53:17.524Z,25.82
2018-05-27T07:54:20.084Z,25.83
2018-05-27T07:55:22.613Z,25.84
2018-05-27T07:56:25.125Z,25.85
2018-05-27T07:57:27.632Z,25.85
2018-05-27T07:58:30.185Z,25.86
2018-05-27T07:59:32.641Z,25.86
2018-05-27T08:00:35.128Z,25.87
2018-05-27T08:01:37.613Z,25.88
2018-05-27T08:02:40.117Z,25.89
2018-05-27T08:03:42.609Z,25.90
2018-05-27T08:04:45.132Z,25.91
2018-05-27T08:05:47.648Z,25.92
2018-05-27T08:06:50.122Z,25.93
2018-05-27T08:07:52.645Z,25.93
2018-05-27T08:08:55.136Z,25.93
2018-05-27T08:09:57.659Z,25.94
2018-05-27T08:11:00.139Z,25.95
2018-05-27T08:12:02.645Z,25.96
2018-05-27T08:13:05.148Z,25.96
2018-05-27T08:14:07.682Z,25.96
2018-05-27T08:15:10.176Z,25.96
2018-05-27T08:16:12.683Z,25.97
2018-05-27T08:17:15.182Z,25.98
2018-05-27T08:18:17.711Z,25.97
2018-05-27T08:19:20.201Z,25.98
2018-05-27T08:20:22.689Z,25.98
2018-05-27T08:21:25.162Z,25.98
2018-05-27T08:22:27.651Z,25.98
2018-05-27T08:23:30.136Z,25.99
2018-05-27T08:24:32.649Z,25.99
2018-05-27T08:25:35.137Z,26.00
2018-05-27T08:26:37.658Z,25.99
2018-05-27T08:27:40.171Z,25.99
2018-05-27T08:28:42.673Z,25.99
2018-05-27T08:29:45.248Z,25.99
2018-05-27T08:30:47.732Z,26.00
2018-05-27T08:31:50.324Z,26.01
2018-05-27T08:32:52.813Z,26.02
2018-05-27T08:33:55.343Z,26.04
2018-05-27T08:34:57.823Z,26.05
2018-05-27T08:36:00.299Z,26.06
2018-05-27T08:37:02.789Z,26.07
2018-05-27T08:38:05.296Z,26.08
2018-05-27T08:39:07.825Z,26.10
2018-05-27T08:40:10.393Z,26.10
2018-05-27T08:41:12.866Z,26.10
2018-05-27T08:42:15.357Z,26.11
2018-05-27T08:43:17.857Z,26.11
2018-05-27T08:44:20.355Z,26.11
2018-05-27T08:45:22.852Z,26.11
2018-05-27T08:46:25.360Z,26.12
2018-05-27T08:47:27.867Z,26.12
2018-05-27T08:48:30.393Z,26.11
2018-05-27T08:49:32.871Z,26.11
2018-05-27T08:50:35.361Z,26.11
2018-05-27T08:51:37.866Z,26.11
2018-05-27T08:52:40.349Z,26.12
2018-05-27T08:53:42.998Z,26.12
2018-05-27T08:54:45.487Z,26.13
2018-05-27T08:55:47.995Z,26.13
2018-05-27T08:56:50.530Z,26.13
2018-05-27T08:57:53.084Z,26.14
2018-05-27T08:58:55.558Z,26.14
2018-05-27T08:59:58.026Z,26.15
2018-05-27T09:01:00.498Z,26.16
2018-05-27T09:02:03.033Z,26.16
2018-05-27T09:03:05.591Z,26.16
2018-05-27T09:04:08.085Z,26.17
2018-05-27T09:05:10.616Z,26.17
2018-05-27T09:06:13.131Z,26.18
2018-05-27T09:07:15.626Z,26.17
2018-05-27T09:08:18.147Z,26.18
2018-05-27T09:09:20.641Z,26.17
2018-05-27T09:10:23.113Z,26.18
2018-05-27T09:11:25.601Z,26.19
2018-05-27T09:12:28.109Z,26.19
2018-05-27T09:13:30.611Z,26.19
2018-05-27T09:14:33.104Z,26.19
2018-05-27T09:15:35.582Z,26.19
2018-05-27T09:16:38.073Z,26.20
2018-05-27T09:17:40.563Z,26.20
2018-05-27T09:18:43.056Z,26.20
2018-05-27T09:19:45.540Z,26.19
2018-05-27T09:20:48.062Z,26.20
2018-05-27T09:21:50.607Z,26.20
2018-05-27T09:22:53.180Z,26.20
2018-05-27T09:23:55.678Z,26.20
2018-05-27T09:24:58.173Z,26.21
2018-05-27T09:26:00.685Z,26.21
2018-05-27T09:27:03.207Z,26.22
2018-05-27T09:28:05.699Z,26.21
2018-05-27T09:29:08.177Z,26.22
2018-05-27T09:30:10.733Z,26.21
2018-05-27T09:31:13.245Z,26.21
2018-05-27T09:32:15.839Z,26.21
2018-05-27T09:33:18.340Z,26.22
2018-05-27T09:34:20.856Z,26.24
2018-05-27T09:35:23.371Z,26.24
2018-05-27T09:36:25.869Z,26.24
2018-05-27T09:37:28.397Z,26.24
2018-05-27T09:38:30.877Z,26.23
2018-05-27T09:39:33.369Z,26.22
2018-05-27T09:40:35.861Z,26.21
2018-05-27T09:41:38.391Z,26.20
2018-05-27T09:42:40.866Z,26.19
2018-05-27T09:43:43.371Z,26.16
2018-05-27T09:44:45.869Z,26.16
2018-05-27T09:45:48.356Z,26.15
2018-05-27T09:46:50.857Z,26.14
2018-05-27T09:47:53.368Z,26.13
2018-05-27T09:48:55.869Z,26.12
2018-05-27T09:49:58.361Z,26.10
2018-05-27T09:51:00.861Z,26.10
2018-05-27T09:52:03.360Z,26.09
2018-05-27T09:53:05.846Z,26.09
2018-05-27T09:54:08.319Z,26.08
2018-05-27T09:55:10.809Z,26.07
2018-05-27T09:56:13.319Z,26.07
2018-05-27T09:57:15.823Z,26.07
2018-05-27T09:58:18.323Z,26.06
2018-05-27T09:59:20.822Z,26.06
2018-05-27T10:00:23.316Z,26.05
2018-05-27T10:01:25.816Z,26.05
2018-05-27T10:02:28.347Z,26.04
2018-05-27T10:03:30.837Z,26.04
2018-05-27T10:04:33.335Z,26.04
2018-05-27T10:05:35.828Z,26.03
2018-05-27T10:06:38.426Z,26.02
2018-05-27T10:07:40.902Z,26.03
2018-05-27T10:08:43.397Z,26.03
2018-05-27T10:09:45.899Z,26.02
2018-05-27T10:10:48.413Z,26.02
2018-05-27T10:11:50.913Z,26.02
2018-05-27T10:12:53.473Z,26.02
2018-05-27T10:13:55.967Z,26.01
2018-05-27T10:14:58.466Z,26.01
2018-05-27T10:16:00.951Z,26.01
2018-05-27T10:17:03.463Z,26.01
2018-05-27T10:18:05.942Z,26.01
2018-05-27T10:19:08.450Z,26.01
2018-05-27T10:20:10.923Z,26.01
2018-05-27T10:21:13.439Z,26.01
2018-05-27T10:22:15.951Z,26.01
2018-05-27T10:23:18.569Z,26.01
2018-05-27T10:24:21.046Z,26.01
2018-05-27T10:25:23.553Z,26.00
2018-05-27T10:26:26.027Z,26.00
2018-05-27T10:27:28.605Z,26.00
2018-05-27T10:28:31.092Z,26.00
2018-05-27T10:29:33.677Z,26.00
2018-05-27T10:30:36.170Z,26.00
2018-05-27T10:31:38.696Z,26.00
2018-05-27T10:32:41.205Z,25.99
2018-05-27T10:33:43.696Z,26.00
2018-05-27T10:34:46.199Z,26.00
2018-05-27T10:35:48.686Z,25.99
2018-05-27T10:36:51.177Z,25.99
2018-05-27T10:37:53.698Z,25.98
2018-05-27T10:38:56.189Z,25.99
2018-05-27T10:39:58.721Z,25.98
2018-05-27T10:41:01.225Z,25.98
2018-05-27T10:42:03.705Z,25.98
2018-05-27T10:43:06.201Z,25.98
2018-05-27T10:44:08.709Z,25.98
2018-05-27T10:45:11.235Z,25.98
2018-05-27T10:46:13.740Z,25.98
2018-05-27T10:47:16.255Z,25.98
2018-05-27T10:48:18.771Z,25.98
2018-05-27T10:49:21.279Z,25.98
2018-05-27T10:50:23.847Z,25.98
2018-05-27T10:51:26.331Z,25.98
2018-05-27T10:52:28.827Z,25.98
2018-05-27T10:53:31.308Z,25.98
2018-05-27T10:54:33.802Z,25.98
2018-05-27T10:55:36.282Z,25.98
2018-05-27T10:56:38.780Z,25.98
2018-05-27T10:57:41.259Z,25.98
2018-05-27T10:58:43.745Z,25.98
2018-05-27T10:59:46.253Z,25.97
2018-05-27T11:00:48.977Z,25.97
2018-05-27T11:01:51.483Z,25.97
2018-05-27T11:02:54.005Z,25.97
2018-05-27T11:03:56.497Z,25.97
2018-05-27T11:04:59.017Z,25.97
2018-05-27T11:06:01.523Z,25.97
2018-05-27T11:07:04.038Z,25.97
2018-05-27T11:08:06.525Z,25.97
2018-05-27T11:09:09.058Z,25.97
2018-05-27T11:10:11.559Z,25.97
2018-05-27T11:11:14.070Z,25.96
2018-05-27T11:12:16.571Z,25.97
2018-05-27T11:13:19.053Z,25.97
2018-05-27T11:14:21.539Z,25.96
2018-05-27T11:15:24.021Z,25.97
2018-05-27T11:16:26.540Z,25.97
2018-05-27T11:17:29.030Z,25.96
2018-05-27T11:18:31.525Z,25.97
2018-05-27T11:19:34.029Z,25.96
2018-05-27T11:20:36.552Z,25.97
2018-05-27T11:21:39.040Z,25.96
2018-05-27T11:22:41.580Z,25.97
2018-05-27T11:23:44.080Z,25.97
2018-05-27T11:24:46.562Z,25.97
2018-05-27T11:25:49.063Z,25.97
2018-05-27T11:26:51.534Z,25.97
2018-05-27T11:27:54.021Z,25.97
2018-05-27T11:28:56.525Z,25.96
2018-05-27T11:29:59.025Z,25.96
2018-05-27T11:31:01.501Z,25.96
2018-05-27T11:32:03.971Z,25.97
2018-05-27T11:33:06.548Z,25.97
2018-05-27T11:34:09.052Z,25.97
2018-05-27T11:35:11.541Z,25.97
2018-05-27T11:36:14.029Z,25.97
2018-05-27T11:37:16.508Z,25.97
2018-05-27T11:38:19.026Z,25.97
2018-05-27T11:39:21.514Z,25.97
2018-05-27T11:40:24.080Z,25.98
2018-05-27T11:41:26.605Z,25.97
2018-05-27T11:42:29.123Z,25.97
2018-05-27T11:43:31.619Z,25.98
2018-05-27T11:44:34.124Z,25.97
2018-05-27T11:45:36.624Z,25.98
2018-05-27T11:46:39.196Z,25.97
2018-05-27T11:47:41.689Z,25.98
2018-05-27T11:48:44.216Z,25.98
2018-05-27T11:49:46.705Z,25.98
2018-05-27T11:50:49.192Z,25.98
2018-05-27T11:51:51.681Z,25.98
2018-05-27T11:52:54.175Z,25.98
2018-05-27T11:53:56.694Z,25.98
2018-05-27T11:54:59.173Z,25.98
2018-05-27T11:56:01.730Z,25.99
2018-05-27T11:57:04.225Z,25.98
2018-05-27T11:58:06.714Z,25.99
2018-05-27T11:59:09.185Z,25.98
2018-05-27T12:00:11.673Z,25.98
2018-05-27T12:01:14.149Z,25.98
2018-05-27T12:02:16.636Z,25.99
2018-05-27T12:03:19.145Z,25.99
2018-05-27T12:04:21.623Z,25.99
2018-05-27T12:05:24.098Z,25.98
2018-05-27T12:06:26.567Z,25.98
2018-05-27T12:07:29.057Z,25.98
2018-05-27T12:08:31.653Z,25.99
2018-05-27T12:09:34.197Z,25.99
2018-05-27T12:10:36.619Z,25.98
2018-05-27T12:11:39.118Z,25.98
2018-05-27T12:12:41.617Z,25.98
2018-05-27T12:13:44.103Z,25.99
2018-05-27T12:14:46.597Z,25.98
2018-05-27T12:15:49.081Z,25.98
2018-05-27T12:16:51.568Z,25.98
2018-05-27T12:17:54.038Z,25.99
2018-05-27T12:18:56.526Z,25.98
2018-05-27T12:19:59.025Z,25.97
2018-05-27T12:21:01.532Z,25.98
2018-05-27T12:22:04.022Z,25.98
2018-05-27T12:23:06.586Z,25.98
2018-05-27T12:24:09.147Z,25.98
2018-05-27T12:25:11.612Z,25.99
2018-05-27T12:26:14.086Z,25.98
2018-05-27T12:27:16.580Z,25.98
2018-05-27T12:28:19.105Z,25.98
2018-05-27T12:29:21.609Z,25.98
2018-05-27T12:30:24.127Z,25.98
2018-05-27T12:31:26.613Z,25.99
2018-05-27T12:32:29.110Z,25.99
2018-05-27T12:33:31.581Z,25.99
2018-05-27T12:34:34.112Z,25.99
2018-05-27T12:35:36.587Z,25.99
2018-05-27T12:36:39.088Z,25.99
2018-05-27T12:37:41.573Z,25.99
2018-05-27T12:38:44.087Z,26.00
2018-05-27T12:39:46.583Z,25.99
2018-05-27T12:40:49.073Z,25.99
2018-05-27T12:41:51.561Z,25.99
2018-05-27T12:42:54.136Z,26.00
2018-05-27T12:43:56.569Z,25.99
2018-05-27T12:44:59.078Z,25.99
2018-05-27T12:46:01.554Z,25.99
2018-05-27T12:47:04.060Z,25.99
2018-05-27T12:48:06.548Z,25.99
2018-05-27T12:49:09.069Z,25.99
2018-05-27T12:50:11.761Z,26.00
2018-05-27T12:51:14.260Z,26.00
2018-05-27T12:52:16.733Z,26.00
2018-05-27T12:53:19.227Z,26.00
2018-05-27T12:54:21.698Z,25.99
2018-05-27T12:55:24.205Z,26.00
2018-05-27T12:56:26.717Z,26.00
2018-05-27T12:57:29.223Z,25.99
2018-05-27T12:58:31.731Z,25.99
2018-05-27T12:59:34.240Z,25.99
2018-05-27T13:00:36.772Z,25.99
2018-05-27T13:01:39.265Z,25.99
2018-05-27T13:02:41.765Z,26.00
2018-05-27T13:03:44.267Z,26.00
2018-05-27T13:04:46.743Z,26.00
2018-05-27T13:05:49.257Z,25.99
2018-05-27T13:06:51.751Z,26.00
2018-05-27T13:07:54.222Z,26.00
2018-05-27T13:08:56.716Z,26.00
2018-05-27T13:09:59.220Z,26.00
2018-05-27T13:11:01.764Z,26.00
2018-05-27T13:12:04.240Z,26.00
2018-05-27T13:13:06.737Z,26.01
2018-05-27T13:14:09.225Z,26.00
2018-05-27T13:15:11.711Z,26.01
2018-05-27T13:16:14.252Z,26.00
2018-05-27T13:17:16.753Z,26.01
2018-05-27T13:18:19.248Z,26.00
2018-05-27T13:19:21.726Z,26.00
2018-05-27T13:20:24.194Z,26.01
2018-05-27T13:21:26.715Z,26.01
2018-05-27T13:22:29.232Z,26.01
2018-05-27T13:23:31.751Z,26.01
2018-05-27T13:24:34.237Z,26.01
2018-05-27T13:25:36.730Z,26.01
2018-05-27T13:26:39.251Z,26.00